createdAt,value
2022-09-01T06:00:13.482Z,60.83
2022-09-01T06:02:42.885Z,60.04
2022-09-01T06:05:15.162Z,59.90
2022-09-01T06:07:42.927Z,59.10
2022-09-01T06:10:12.883Z,58.66
2022-09-01T06:12:40.730Z,58.12
2022-09-01T06:15:16.257Z,57.88
2022-09-01T06:17:50.081Z,56.99
2022-09-01T06:20:28.403Z,56.82
2022-09-01T06:23:04.800Z,56.69
2022-09-01T06:25:39.683Z,56.79
2022-09-01T06:28:28.290Z,56.23
2022-09-01T06:37:23.362Z,55.17
2022-09-01T06:39:57.073Z,55.00
2022-09-01T06:42:43.583Z,54.62
2022-09-01T06:45:14.351Z,54.36
2022-09-01T06:48:11.082Z,53.60
2022-09-01T06:53:45.027Z,53.61
2022-09-01T06:56:25.719Z,53.14
2022-09-01T06:59:06.258Z,52.75
2022-09-01T07:01:39.413Z,52.83
2022-09-01T07:07:53.072Z,52.46
2022-09-01T07:10:18.172Z,52.01
2022-09-01T07:13:06.625Z,51.82
2022-09-01T07:18:27.334Z,51.34
2022-09-01T07:21:38.780Z,51.13
2022-09-01T07:24:07.616Z,51.26
2022-09-01T07:26:35.292Z,51.28
2022-09-01T07:29:04.264Z,50.95
2022-09-01T07:34:41.933Z,50.35
2022-09-01T07:38:47.344Z,50.65
2022-09-01T07:42:31.115Z,52.23
2022-09-01T07:43:29.787Z,50.20
2022-09-01T07:51:59.793Z,49.09
2022-09-01T07:54:27.569Z,48.65
2022-09-01T07:56:56.123Z,48.38
2022-09-01T07:59:24.164Z,48.30
2022-09-01T08:02:05.744Z,48.17
2022-09-01T08:04:34.101Z,48.22
2022-09-01T08:07:01.767Z,47.77
2022-09-01T08:09:38.066Z,47.56
2022-09-01T08:12:11.494Z,47.58
2022-09-01T08:17:52.717Z,47.51
2022-09-01T08:20:22.217Z,47.06
2022-09-01T08:22:52.355Z,46.76
2022-09-01T08:25:25.178Z,46.50
2022-09-01T08:27:59.850Z,46.29
2022-09-01T08:30:27.854Z,46.40
2022-09-01T08:32:54.734Z,46.41
2022-09-01T08:35:21.937Z,45.95
2022-09-01T08:37:48.494Z,46.08
2022-09-01T08:40:18.814Z,46.27
2022-09-01T08:43:17.183Z,46.24
2022-09-01T08:46:10.266Z,46.06
2022-09-01T08:51:40.554Z,46.22
2022-09-01T08:54:29.334Z,45.40
2022-09-01T08:57:13.930Z,45.21
2022-09-01T08:59:59.322Z,45.21
2022-09-01T09:02:51.319Z,44.65
2022-09-01T09:05:28.371Z,44.70
2022-09-01T09:08:09.520Z,44.39
2022-09-01T09:10:43.641Z,43.90
2022-09-01T09:13:29.299Z,44.33
2022-09-01T09:16:09.461Z,43.78
2022-09-01T09:18:56.661Z,43.86
2022-09-01T09:21:30.032Z,43.74
2022-09-01T09:24:11.528Z,43.87
2022-09-01T09:26:45.228Z,43.67
2022-09-01T09:29:11.927Z,43.09
2022-09-01T09:31:45.916Z,42.96
2022-09-01T09:34:17.136Z,42.50
2022-09-01T09:36:52.340Z,42.24
2022-09-01T09:39:21.199Z,42.57
2022-09-01T09:42:10.544Z,42.19
2022-09-01T09:44:52.718Z,41.68
2022-09-01T09:47:43.909Z,42.00
2022-09-01T09:50:25.598Z,41.90
2022-09-01T09:53:11.179Z,41.93
2022-09-01T09:55:55.890Z,41.95
2022-09-01T09:58:26.582Z,41.71
2022-09-01T10:01:17.951Z,41.61
2022-09-01T10:03:50.977Z,41.25
2022-09-01T10:06:47.433Z,40.86
2022-09-01T10:09:15.919Z,40.54
2022-09-01T10:11:45.565Z,40.01
2022-09-01T10:14:49.836Z,39.83
2022-09-01T10:17:13.291Z,39.39
2022-09-01T10:19:54.180Z,38.89
2022-09-01T10:22:22.774Z,38.56
2022-09-01T10:24:50.476Z,37.36
2022-09-01T10:27:27.173Z,36.62
2022-09-01T10:33:03.450Z,34.86
2022-09-01T10:35:40.538Z,34.21
2022-09-01T10:38:09.103Z,33.10
2022-09-01T10:41:07.090Z,32.69
2022-09-01T10:43:40.206Z,31.80
2022-09-01T10:46:24.727Z,31.68
2022-09-01T10:48:56.603Z,31.34
2022-09-01T10:51:35.900Z,30.93
2022-09-01T10:54:06.698Z,30.83
2022-09-01T10:56:53.425Z,29.15
2022-09-01T10:59:33.700Z,29.01
2022-09-01T11:02:23.918Z,27.65
2022-09-01T11:04:55.750Z,27.66
2022-09-01T11:07:33.556Z,27.15
2022-09-01T11:10:34.750Z,25.83
2022-09-01T11:13:27.885Z,25.63
2022-09-01T11:15:55.462Z,25.98
2022-09-01T11:18:30.741Z,25.21
2022-09-01T11:21:26.519Z,24.45
2022-09-01T11:24:33.316Z,24.63
2022-09-01T11:27:00.032Z,25.42
2022-09-01T11:29:54.764Z,25.85
2022-09-01T11:32:27.728Z,25.45
2022-09-01T11:34:56.059Z,26.51
2022-09-01T11:37:27.527Z,25.91
2022-09-01T11:39:58.831Z,24.29
2022-09-01T11:42:37.406Z,23.28
2022-09-01T11:45:21.659Z,23.17
2022-09-01T11:47:52.862Z,23.33
2022-09-01T11:50:47.921Z,22.50
2022-09-01T11:53:21.555Z,22.01
2022-09-01T11:55:51.259Z,23.54
2022-09-01T11:58:31.476Z,23.69
2022-09-01T12:01:15.644Z,23.29
2022-09-01T12:03:43.197Z,25.16
2022-09-01T12:06:29.777Z,24.68
2022-09-01T12:09:03.807Z,23.55
2022-09-01T12:11:35.457Z,22.78
2022-09-01T12:14:07.731Z,21.34
2022-09-01T12:16:40.103Z,20.59
2022-09-01T12:19:06.948Z,20.80
2022-09-01T12:21:38.214Z,21.26
2022-09-01T12:24:23.477Z,22.49
2022-09-01T12:26:55.837Z,23.64
2022-09-01T12:29:23.296Z,24.78
2022-09-01T12:31:53.215Z,25.36
2022-09-01T12:34:42.056Z,23.83
2022-09-01T12:37:17.625Z,24.21
2022-09-01T12:39:49.854Z,23.91
2022-09-01T12:42:25.121Z,22.87
2022-09-01T12:45:06.301Z,22.17
2022-09-01T12:47:36.015Z,21.64
2022-09-01T12:50:16.304Z,21.48
2022-09-01T12:52:47.947Z,20.49
2022-09-01T12:58:09.185Z,19.78
2022-09-01T13:00:54.089Z,19.70
2022-09-01T13:03:21.634Z,18.51
2022-09-01T13:05:54.261Z,19.45
2022-09-01T13:08:27.099Z,21.03
2022-09-01T13:10:57.483Z,22.45
2022-09-01T13:13:25.958Z,23.12
2022-09-01T13:15:56.133Z,21.40
2022-09-01T13:18:24.381Z,21.18
2022-09-01T13:20:53.107Z,21.69
2022-09-01T13:23:20.591Z,21.35
2022-09-01T13:25:48.027Z,20.09
2022-09-01T13:28:17.749Z,20.22
2022-09-01T13:31:28.338Z,19.71
2022-09-01T13:36:44.218Z,17.99
2022-09-01T13:39:15.744Z,17.35
2022-09-01T13:41:42.922Z,16.56
2022-09-01T13:44:11.879Z,17.09
2022-09-01T13:46:59.031Z,17.05
2022-09-01T13:52:12.983Z,17.08
2022-09-01T13:54:40.660Z,17.88
2022-09-01T13:57:07.161Z,18.08
2022-09-01T13:59:33.717Z,17.52
2022-09-01T14:02:01.502Z,16.97
2022-09-01T14:04:28.158Z,16.90
2022-09-01T14:06:55.190Z,17.23
2022-09-01T14:09:22.289Z,17.07
2022-09-01T14:11:49.028Z,17.77
2022-09-01T14:14:15.523Z,19.03
2022-09-01T14:16:42.067Z,19.61
2022-09-01T14:19:09.100Z,18.56
2022-09-01T14:21:35.592Z,17.71
2022-09-01T14:24:02.377Z,17.09
2022-09-01T14:26:30.227Z,16.49
2022-09-01T14:28:57.983Z,16.96
2022-09-01T14:31:24.517Z,18.11
2022-09-01T14:33:51.156Z,19.42
2022-09-01T14:36:24.644Z,20.26
2022-09-01T14:38:52.650Z,20.38
2022-09-01T14:41:23.927Z,21.41
2022-09-01T14:44:02.297Z,20.42
2022-09-01T14:46:31.713Z,18.99
2022-09-01T14:48:58.267Z,19.03
2022-09-01T14:54:16.868Z,18.54
2022-09-01T14:57:28.473Z,19.10
2022-09-01T14:59:30.348Z,18.76
2022-09-01T15:01:57.139Z,18.49
2022-09-01T15:04:24.603Z,19.11
2022-09-01T15:06:51.195Z,19.16
2022-09-01T15:09:19.223Z,19.83
2022-09-01T15:11:46.830Z,20.00
2022-09-01T15:14:13.615Z,20.24
2022-09-01T15:16:41.496Z,21.28
2022-09-01T15:19:10.872Z,21.66
2022-09-01T15:21:38.926Z,21.96
2022-09-01T15:24:07.227Z,22.21
2022-09-01T15:26:34.466Z,22.55
2022-09-01T15:29:02.000Z,23.21
2022-09-01T15:31:33.152Z,23.09
2022-09-01T15:34:01.674Z,22.71
2022-09-01T15:36:30.612Z,22.45
2022-09-01T15:38:58.189Z,21.87
2022-09-01T15:41:28.263Z,22.03
2022-09-01T15:43:56.278Z,21.45
2022-09-01T15:46:30.966Z,21.98
2022-09-01T15:48:59.180Z,21.82
2022-09-01T15:51:30.166Z,21.84
2022-09-01T15:54:00.883Z,21.71
2022-09-01T15:56:28.106Z,21.13
2022-09-01T15:59:02.663Z,21.15
2022-09-01T16:01:32.756Z,21.19
2022-09-01T16:04:01.352Z,21.57
2022-09-01T16:06:28.397Z,21.91
2022-09-01T16:08:55.577Z,22.10
2022-09-01T16:11:23.591Z,21.90
2022-09-01T16:13:54.655Z,21.78
2022-09-01T16:16:21.223Z,21.81
2022-09-01T16:18:56.692Z,21.34
2022-09-01T16:21:41.499Z,21.83
2022-09-01T16:24:11.962Z,22.04
2022-09-01T16:26:39.749Z,21.90
2022-09-01T16:29:14.716Z,21.91
2022-09-01T16:31:42.290Z,22.27
2022-09-01T16:34:18.049Z,22.18
2022-09-01T16:37:04.545Z,22.68
2022-09-01T16:39:50.553Z,22.80
2022-09-01T16:42:41.518Z,22.41
2022-09-01T16:45:45.958Z,22.92
2022-09-01T16:48:30.800Z,22.92
2022-09-01T16:51:01.227Z,22.89
2022-09-01T16:54:01.487Z,22.94
2022-09-01T16:56:36.395Z,23.66
2022-09-01T16:59:13.472Z,23.83
2022-09-01T17:01:53.783Z,24.21
2022-09-01T17:04:29.807Z,24.29
2022-09-01T17:07:29.982Z,24.46
2022-09-01T17:09:56.468Z,24.84
2022-09-01T17:12:39.295Z,24.62
2022-09-01T17:15:12.818Z,24.49
2022-09-01T17:17:48.621Z,25.11
2022-09-01T17:20:25.078Z,25.33
2022-09-01T17:22:55.014Z,25.88
2022-09-01T17:25:29.805Z,25.86
2022-09-01T17:28:07.938Z,26.22
2022-09-01T17:30:44.667Z,25.98
2022-09-01T17:33:25.170Z,26.21
2022-09-01T17:36:00.987Z,26.69
2022-09-01T17:38:48.042Z,27.05
2022-09-01T17:41:43.581Z,27.55
2022-09-01T17:44:47.274Z,27.71
2022-09-01T17:47:43.423Z,27.85
2022-09-01T17:50:19.079Z,28.02
2022-09-01T17:52:55.315Z,28.00
2022-09-01T17:55:31.091Z,28.17
2022-09-01T17:58:04.956Z,28.73
2022-09-01T18:00:40.400Z,28.75
2022-09-01T18:03:14.774Z,28.65
2022-09-01T18:05:54.644Z,28.97
2022-09-01T18:08:44.427Z,28.98
2022-09-01T18:11:31.841Z,29.08
2022-09-01T18:14:16.287Z,29.50
2022-09-01T18:16:49.885Z,29.54
2022-09-01T18:19:19.793Z,29.54
2022-09-01T18:21:56.454Z,29.51
2022-09-01T18:24:32.428Z,30.00
2022-09-01T18:27:01.582Z,29.92
2022-09-01T18:29:29.725Z,30.17
2022-09-01T18:32:47.558Z,30.44
2022-09-01T18:35:26.824Z,30.56
2022-09-01T18:38:18.000Z,30.56
2022-09-01T18:41:12.987Z,30.90
2022-09-01T18:43:58.849Z,31.35
2022-09-01T18:46:39.166Z,31.21
2022-09-01T18:49:21.528Z,31.42
2022-09-01T18:52:06.520Z,31.62
2022-09-01T18:54:51.085Z,31.31
2022-09-01T18:57:21.535Z,31.69
2022-09-01T19:00:09.933Z,31.72
2022-09-01T19:02:57.231Z,31.86
2022-09-01T19:05:38.410Z,32.07
2022-09-01T19:08:19.228Z,32.49
2022-09-01T19:10:56.608Z,33.24
2022-09-01T19:13:33.809Z,33.10
2022-09-01T19:16:34.131Z,33.17
2022-09-01T19:19:18.461Z,32.76
2022-09-01T19:21:49.232Z,32.53
2022-09-01T19:24:35.443Z,32.90
2022-09-01T19:27:11.999Z,32.72
2022-09-01T19:29:52.435Z,33.09
2022-09-01T19:32:21.362Z,33.59
2022-09-01T19:34:53.283Z,34.19
2022-09-01T19:37:21.335Z,34.21
2022-09-01T19:39:53.792Z,34.13
2022-09-01T19:42:34.417Z,34.71
2022-09-01T19:45:09.519Z,34.51
2022-09-01T19:48:06.208Z,34.52
2022-09-01T19:51:03.306Z,34.66
2022-09-01T19:53:36.429Z,34.69
2022-09-01T19:56:15.783Z,34.87
2022-09-01T19:58:59.035Z,34.72
2022-09-01T20:01:40.133Z,34.89
2022-09-01T20:04:20.409Z,34.71
2022-09-01T20:06:53.310Z,34.59
2022-09-01T20:09:53.897Z,34.79
2022-09-01T20:12:40.045Z,34.86
2022-09-01T20:15:17.839Z,35.04
2022-09-01T20:17:57.823Z,35.16
2022-09-01T20:20:45.853Z,34.91
2022-09-01T20:23:36.761Z,35.26
2022-09-01T20:26:12.821Z,35.12
2022-09-01T20:29:08.087Z,35.33
2022-09-01T20:31:50.330Z,35.36
2022-09-01T20:34:48.517Z,35.41
2022-09-01T20:37:27.209Z,35.24
2022-09-01T20:40:22.664Z,34.96
2022-09-01T20:43:11.194Z,35.29
2022-09-01T20:45:38.899Z,35.49
2022-09-01T20:48:14.303Z,35.28
2022-09-01T20:50:54.800Z,35.28
2022-09-01T20:53:49.673Z,34.98
2022-09-01T20:56:43.167Z,35.70
2022-09-01T20:59:16.583Z,35.47
2022-09-01T21:02:11.408Z,35.45
2022-09-01T21:13:12.195Z,35.76
2022-09-01T21:16:14.969Z,35.82
2022-09-01T21:19:10.793Z,35.78
2022-09-01T21:21:58.985Z,35.77
2022-09-01T21:24:26.285Z,35.98
2022-09-01T21:26:56.603Z,36.12
2022-09-01T21:29:38.397Z,35.95
2022-09-01T21:32:05.135Z,36.14
2022-09-01T21:34:31.989Z,36.31
2022-09-01T21:50:43.887Z,36.88
2022-09-01T21:53:11.772Z,36.98
2022-09-01T21:55:38.320Z,37.03
2022-09-01T21:58:04.837Z,37.37
